Time;durP1;ratioP1;P1;durP2;ratioP2;P2;SDS_P1;SDS_P2;PMS_P1;PMS_P2;Temp;Humidity;BMP_temperature;BMP_pressure;BME280_temperature;BME280_humidity;BME280_pressure;Samples;Min_cycle;Max_cycle;Signal;HPM_P1;HPM_P2
2021/12/24 00:01:09;;;;;;;9.20;8.55;;;10.80;81.00;;;;;;4988268;28;20034;-82
2021/12/24 00:03:35;;;;;;;10.07;9.20;;;10.80;81.00;;;;;;4991935;28;20029;-81
2021/12/24 00:06:02;;;;;;;8.48;8.07;;;10.80;81.00;;;;;;4995710;28;20069;-81
2021/12/24 00:08:28;;;;;;;8.90;8.50;;;10.80;81.10;;;;;;5012629;28;20025;-81
2021/12/24 00:11:00;;;;;;;9.77;9.07;;;10.80;81.10;;;;;;5011211;28;20053;-82
2021/12/24 00:13:27;;;;;;;9.23;8.73;;;10.80;81.20;;;;;;5010112;28;20041;-82
2021/12/24 00:16:21;;;;;;;8.82;8.43;;;10.70;81.10;;;;;;4992299;28;20049;-82
2021/12/24 00:18:50;;;;;;;8.90;8.40;;;10.70;81.10;;;;;;5010992;28;20018;-82
2021/12/24 00:37:22;;;;;;;8.45;8.00;;;10.80;81.20;;;;;;5013126;28;20041;-82
2021/12/24 00:42:32;;;;;;;8.68;8.18;;;10.80;81.20;;;;;;5011714;28;20395;-81
2021/12/24 00:44:59;;;;;;;9.23;8.73;;;10.70;81.20;;;;;;5011742;28;20037;-82
2021/12/24 00:47:25;;;;;;;8.90;8.40;;;10.70;81.20;;;;;;5011255;28;20030;-82
2021/12/24 00:49:55;;;;;;;9.05;8.60;;;10.80;81.30;;;;;;5010275;28;20030;-82
2021/12/24 00:52:44;;;;;;;8.68;8.05;;;10.80;81.20;;;;;;5012598;28;20032;-82
2021/12/24 00:55:09;;;;;;;9.82;9.20;;;10.80;81.30;;;;;;5010471;28;20033;-82
2021/12/24 00:57:43;;;;;;;9.55;9.00;;;10.70;81.20;;;;;;5010565;28;20483;-82
2021/12/24 01:00:36;;;;;;;10.20;9.50;;;10.80;81.30;;;;;;5011194;28;20018;-82
2021/12/24 01:03:03;;;;;;;8.90;8.40;;;10.80;81.40;;;;;;5010774;28;20061;-82
2021/12/24 01:05:30;;;;;;;9.05;8.57;;;10.80;81.30;;;;;;4995179;28;20029;-83
2021/12/24 01:07:56;;;;;;;9.40;8.90;;;10.80;81.30;;;;;;5009335;28;20025;-83
2021/12/24 01:10:27;;;;;;;8.93;8.52;;;10.90;81.30;;;;;;5008884;28;20033;-83
2021/12/24 01:12:53;;;;;;;8.35;7.95;;;10.90;81.30;;;;;;5010419;28;20383;-83
2021/12/24 01:15:19;;;;;;;8.35;7.95;;;10.90;81.30;;;;;;5009905;28;20030;-82
2021/12/24 01:20:52;;;;;;;8.93;8.43;;;11.00;81.30;;;;;;5004937;28;20487;-83
2021/12/24 01:26:03;;;;;;;9.02;8.45;;;11.00;81.30;;;;;;5009963;28;20040;-82
2021/12/24 01:39:23;;;;;;;10.80;10.07;;;11.00;81.30;;;;;;4936163;29;20578;-82
2021/12/24 01:44:35;;;;;;;8.38;7.97;;;11.00;81.40;;;;;;4949070;28;20409;-82
2021/12/24 01:47:03;;;;;;;8.90;8.40;;;11.00;81.40;;;;;;4950216;28;20043;-81
2021/12/24 01:49:29;;;;;;;12.15;9.68;;;11.00;81.50;;;;;;4949703;28;20027;-82
2021/12/24 01:51:57;;;;;;;8.88;8.48;;;11.00;81.50;;;;;;4950580;28;20043;-81
2021/12/24 01:54:23;;;;;;;8.77;8.38;;;11.00;81.50;;;;;;4946819;29;20050;-82
2021/12/24 01:56:49;;;;;;;8.95;8.45;;;11.00;81.60;;;;;;4955162;28;20051;-82
2021/12/24 01:59:15;;;;;;;8.18;7.78;;;11.00;81.60;;;;;;4948105;28;20039;-82
2021/12/24 02:01:42;;;;;;;8.90;8.40;;;11.00;81.70;;;;;;4949943;28;20051;-82
2021/12/24 02:04:11;;;;;;;8.50;8.00;;;11.00;81.70;;;;;;4950292;29;20062;-82
2021/12/24 02:06:39;;;;;;;24.00;9.20;;;11.00;81.70;;;;;;4950377;28;20036;-82
2021/12/24 02:09:06;;;;;;;8.85;8.25;;;11.00;81.70;;;;;;4933240;29;20051;-82
2021/12/24 02:11:37;;;;;;;9.45;8.80;;;11.00;81.70;;;;;;4997194;28;20041;-81
2021/12/24 02:14:24;;;;;;;8.70;8.20;;;11.00;81.70;;;;;;5013109;28;20033;-81
2021/12/24 02:30:30;;;;;;;8.95;8.45;;;11.10;81.60;;;;;;5005815;28;20033;-82
2021/12/24 02:32:56;;;;;;;8.70;7.90;;;11.10;81.70;;;;;;4997573;28;20022;-82
2021/12/24 02:35:22;;;;;;;8.98;8.48;;;11.20;81.80;;;;;;4999596;28;20535;-81
2021/12/24 02:37:48;;;;;;;8.32;7.93;;;11.10;81.70;;;;;;5000593;28;20037;-81
2021/12/24 02:40:14;;;;;;;7.75;7.35;;;11.10;81.70;;;;;;5000611;28;20022;-82
2021/12/24 02:42:47;;;;;;;8.75;8.25;;;11.10;81.80;;;;;;4998968;28;20030;-81
2021/12/24 02:45:13;;;;;;;9.68;9.13;;;11.10;81.80;;;;;;4998607;28;20498;-81
2021/12/24 02:47:57;;;;;;;8.88;8.38;;;11.10;81.80;;;;;;5014650;28;20026;-82
2021/12/24 02:55:34;;;;;;;9.35;8.75;;;11.10;81.80;;;;;;5007608;28;20052;-82
2021/12/24 02:58:01;;;;;;;11.00;9.98;;;11.10;81.90;;;;;;5014080;28;20041;-81
2021/12/24 03:00:28;;;;;;;9.20;8.80;;;11.10;82.10;;;;;;5009783;28;20030;-82
2021/12/24 03:02:54;;;;;;;10.05;9.55;;;11.10;82.10;;;;;;5010517;28;20451;-82
2021/12/24 03:05:21;;;;;;;10.25;9.75;;;11.00;82.10;;;;;;5009439;28;20026;-81
2021/12/24 03:07:48;;;;;;;9.63;9.13;;;11.00;82.20;;;;;;5009340;28;20029;-82
2021/12/24 03:10:16;;;;;;;9.60;9.07;;;11.00;82.40;;;;;;4995521;28;20048;-81
2021/12/24 03:12:44;;;;;;;9.70;9.25;;;11.00;82.40;;;;;;5011271;28;20029;-81
2021/12/24 03:15:12;;;;;;;9.48;8.98;;;11.00;83.30;;;;;;5011396;28;20033;-81
2021/12/24 03:17:38;;;;;;;8.80;8.32;;;11.00;82.50;;;;;;5014069;28;20034;-82
2021/12/24 03:20:09;;;;;;;9.10;8.60;;;11.00;82.40;;;;;;5011539;28;20034;-82
2021/12/24 03:25:13;;;;;;;9.13;8.63;;;11.00;82.30;;;;;;5002136;28;20034;-82
2021/12/24 03:27:40;;;;;;;9.82;9.23;;;11.10;82.30;;;;;;4996256;28;20030;-82
2021/12/24 03:30:06;;;;;;;9.30;8.80;;;11.10;82.30;;;;;;4994573;28;20045;-82
2021/12/24 03:32:33;;;;;;;9.07;8.60;;;11.10;82.30;;;;;;5011875;28;20041;-82
2021/12/24 03:34:59;;;;;;;8.55;8.15;;;11.10;82.30;;;;;;5016371;28;20519;-82
2021/12/24 03:37:25;;;;;;;9.25;8.55;;;11.10;82.30;;;;;;5013788;28;20041;-82
2021/12/24 03:39:51;;;;;;;9.45;8.82;;;11.10;82.40;;;;;;5010071;28;20026;-81
2021/12/24 03:42:17;;;;;;;8.77;8.20;;;11.10;82.50;;;;;;5012689;28;20038;-82
2021/12/24 03:44:51;;;;;;;8.77;8.35;;;11.10;82.50;;;;;;5012471;28;20033;-82
2021/12/24 03:47:18;;;;;;;9.07;8.48;;;11.10;82.50;;;;;;5013220;28;20083;-82
2021/12/24 03:49:55;;;;;;;8.95;8.52;;;11.10;82.50;;;;;;5012461;28;20026;-82
2021/12/24 03:55:04;;;;;;;8.52;8.13;;;11.10;82.60;;;;;;5012294;28;20038;-82
2021/12/24 03:57:37;;;;;;;8.40;7.88;;;11.10;82.60;;;;;;5012128;28;20045;-82
2021/12/24 04:00:18;;;;;;;9.45;8.85;;;11.10;82.50;;;;;;5011983;28;20030;-81
2021/12/24 04:02:45;;;;;;;7.75;7.40;;;11.10;82.50;;;;;;5003210;28;20026;-82
2021/12/24 04:05:11;;;;;;;8.43;7.82;;;11.10;82.50;;;;;;4994654;28;20037;-82
2021/12/24 04:07:37;;;;;;;8.32;7.72;;;11.10;82.50;;;;;;4989120;28;20034;-82
2021/12/24 04:10:19;;;;;;;7.65;7.28;;;11.20;82.50;;;;;;5002974;28;20506;-82
2021/12/24 04:12:45;;;;;;;8.02;7.63;;;11.20;82.50;;;;;;5012590;28;20042;-82
2021/12/24 04:15:11;;;;;;;7.60;7.28;;;11.10;82.40;;;;;;4993877;28;20391;-82
2021/12/24 04:17:40;;;;;;;8.50;8.00;;;11.10;82.50;;;;;;5011954;28;20038;-82
2021/12/24 04:25:26;;;;;;;8.00;7.40;;;11.10;82.60;;;;;;5006766;28;20022;-82
2021/12/24 04:27:53;;;;;;;7.35;6.93;;;11.10;82.60;;;;;;5008673;28;20025;-82
2021/12/24 04:30:25;;;;;;;12.65;8.40;;;11.10;82.60;;;;;;5012591;28;20041;-82
2021/12/24 04:33:03;;;;;;;8.05;7.65;;;11.00;82.60;;;;;;5012385;28;20460;-81
2021/12/24 04:51:31;;;;;;;9.05;8.45;;;10.90;82.90;;;;;;5011471;28;20045;-81
2021/12/24 05:04:36;;;;;;;8.65;8.15;;;10.90;82.90;;;;;;5009839;28;20025;-83
2021/12/24 05:07:20;;;;;;;8.10;7.60;;;10.90;82.90;;;;;;5010112;28;20041;-84
2021/12/24 05:09:46;;;;;;;8.95;8.45;;;10.90;82.90;;;;;;5010539;28;20033;-84
2021/12/24 05:12:12;;;;;;;8.43;8.00;;;10.90;82.90;;;;;;5009879;28;20030;-83
2021/12/24 05:14:38;;;;;;;7.82;7.43;;;10.80;82.90;;;;;;5012098;28;20489;-83
2021/12/24 05:22:30;;;;;;;8.35;7.90;;;10.80;82.90;;;;;;5008088;28;20060;-83
2021/12/24 05:24:57;;;;;;;8.75;8.15;;;10.80;83.00;;;;;;4993029;28;20026;-83
2021/12/24 05:27:23;;;;;;;8.10;7.60;;;10.80;83.00;;;;;;5012636;28;20034;-83
2021/12/24 05:29:49;;;;;;;9.55;8.77;;;10.70;83.00;;;;;;5010293;28;20042;-83
2021/12/24 05:32:15;;;;;;;9.90;8.93;;;10.80;83.10;;;;;;4977625;28;20045;-83
2021/12/24 05:34:42;;;;;;;7.90;7.38;;;10.80;83.10;;;;;;5008055;28;20050;-83
2021/12/24 05:37:08;;;;;;;8.10;7.60;;;10.70;83.10;;;;;;5008170;28;20048;-83
2021/12/24 05:39:34;;;;;;;7.35;7.05;;;10.70;83.90;;;;;;5008410;28;20030;-85
2021/12/24 05:42:01;;;;;;;7.70;7.30;;;10.70;83.10;;;;;;5007303;28;20042;-83
2021/12/24 05:44:27;;;;;;;7.97;7.50;;;10.70;83.20;;;;;;5006621;28;20364;-81
2021/12/24 05:46:54;;;;;;;7.53;7.13;;;10.60;83.10;;;;;;5006559;28;20034;-83
2021/12/24 05:49:20;;;;;;;7.85;7.45;;;10.60;83.10;;;;;;5008846;28;20026;-82
2021/12/24 05:51:46;;;;;;;9.20;8.70;;;10.60;83.30;;;;;;5009044;28;20391;-83
2021/12/24 05:54:12;;;;;;;9.18;8.48;;;10.50;83.20;;;;;;5008522;28;20109;-84
2021/12/24 05:56:38;;;;;;;8.18;7.72;;;10.50;83.30;;;;;;5010264;28;20045;-83
2021/12/24 05:59:05;;;;;;;9.15;8.65;;;10.40;83.30;;;;;;5010014;28;20363;-83
2021/12/24 06:01:31;;;;;;;8.45;8.05;;;10.40;83.50;;;;;;4990810;28;20037;-82
2021/12/24 06:03:57;;;;;;;11.13;10.63;;;10.30;83.40;;;;;;5005811;28;20723;-83
2021/12/24 06:06:23;;;;;;;10.63;9.88;;;10.30;83.50;;;;;;5005574;28;20027;-82
2021/12/24 06:08:49;;;;;;;8.85;8.45;;;10.20;83.50;;;;;;4996002;28;20041;-81
2021/12/24 06:11:16;;;;;;;8.32;7.93;;;10.20;83.70;;;;;;5012738;28;20037;-81
2021/12/24 06:13:42;;;;;;;8.23;7.82;;;10.20;83.70;;;;;;5009355;28;20018;-81
2021/12/24 06:16:09;;;;;;;9.63;9.05;;;10.10;83.70;;;;;;5009217;28;20384;-81
2021/12/24 06:18:39;;;;;;;9.70;9.20;;;10.10;84.50;;;;;;5008750;28;20089;-81
2021/12/24 06:21:05;;;;;;;8.63;8.20;;;10.10;83.70;;;;;;5009364;28;20053;-81
2021/12/24 06:23:31;;;;;;;8.80;8.32;;;10.10;83.80;;;;;;5012481;28;20042;-81
2021/12/24 06:25:58;;;;;;;8.25;7.85;;;10.10;84.50;;;;;;5007495;28;20418;-81
2021/12/24 06:28:25;;;;;;;9.73;9.13;;;10.10;83.70;;;;;;5010601;28;20037;-81
2021/12/24 06:30:51;;;;;;;8.30;7.85;;;10.10;83.70;;;;;;5008089;28;20046;-80
2021/12/24 06:33:17;;;;;;;7.88;7.47;;;10.10;83.70;;;;;;5018100;28;20028;-81
2021/12/24 06:35:43;;;;;;;8.43;7.95;;;10.10;83.70;;;;;;4992845;28;20050;-81
2021/12/24 06:38:09;;;;;;;10.68;8.48;;;10.00;83.60;;;;;;5010937;28;20513;-81
2021/12/24 06:40:36;;;;;;;9.88;9.18;;;10.00;83.60;;;;;;5009039;28;20038;-81
2021/12/24 06:43:02;;;;;;;8.15;7.75;;;10.00;83.60;;;;;;5008854;28;20394;-80
2021/12/24 06:45:28;;;;;;;9.43;8.93;;;9.90;83.60;;;;;;5008871;28;20049;-80
2021/12/24 06:47:56;;;;;;;9.45;8.95;;;9.90;83.60;;;;;;5009420;28;20399;-80
2021/12/24 06:50:22;;;;;;;8.40;7.90;;;9.80;83.70;;;;;;5008954;28;20029;-81
2021/12/24 06:52:48;;;;;;;9.85;8.35;;;9.80;83.80;;;;;;5008492;28;20038;-80
2021/12/24 06:55:15;;;;;;;8.68;8.25;;;9.70;83.90;;;;;;5007629;28;20387;-81
2021/12/24 06:57:41;;;;;;;9.98;9.30;;;9.70;83.90;;;;;;5012936;28;20053;-80
2021/12/24 07:00:13;;;;;;;11.52;8.80;;;9.60;83.90;;;;;;5012055;28;20038;-80
2021/12/24 07:02:39;;;;;;;7.65;7.25;;;9.60;84.00;;;;;;5015277;28;20471;-84
2021/12/24 07:05:05;;;;;;;9.50;9.07;;;9.60;85.00;;;;;;4991815;28;20043;-82
2021/12/24 07:07:31;;;;;;;8.98;8.48;;;9.70;84.30;;;;;;5005834;28;20030;-81
2021/12/24 07:09:57;;;;;;;11.70;9.93;;;9.70;84.00;;;;;;5013125;28;20040;-81
2021/12/24 07:12:23;;;;;;;8.98;8.48;;;9.70;83.90;;;;;;5012525;28;20378;-81
2021/12/24 07:14:49;;;;;;;8.57;8.18;;;9.60;83.70;;;;;;5014423;28;20041;-81
2021/12/24 07:17:16;;;;;;;8.85;8.05;;;9.60;83.80;;;;;;5013522;28;20430;-81
2021/12/24 07:19:42;;;;;;;9.07;8.52;;;9.50;83.80;;;;;;5012556;28;20026;-80
2021/12/24 07:22:08;;;;;;;8.00;7.60;;;9.40;83.80;;;;;;5012920;28;20033;-81
2021/12/24 07:24:37;;;;;;;8.73;8.23;;;9.40;83.90;;;;;;5013416;28;20022;-81
2021/12/24 07:27:03;;;;;;;8.00;7.60;;;9.30;84.00;;;;;;5012668;28;20049;-81
2021/12/24 07:29:30;;;;;;;8.27;7.88;;;9.30;84.10;;;;;;5014708;28;20041;-81
2021/12/24 07:31:56;;;;;;;8.52;8.13;;;9.30;84.20;;;;;;5011552;28;20037;-81
2021/12/24 07:34:22;;;;;;;8.98;8.35;;;9.20;84.10;;;;;;5012470;28;20046;-81
2021/12/24 07:36:49;;;;;;;7.82;7.43;;;9.10;84.10;;;;;;5012445;28;20038;-80
2021/12/24 07:39:15;;;;;;;7.82;7.43;;;9.10;84.10;;;;;;5012815;28;20034;-80
2021/12/24 07:41:42;;;;;;;7.95;7.55;;;9.00;84.10;;;;;;5012684;28;20061;-81
2021/12/24 07:44:08;;;;;;;9.02;8.63;;;9.00;84.10;;;;;;5012530;28;20026;-80
2021/12/24 07:46:48;;;;;;;8.95;8.48;;;9.00;84.20;;;;;;5012182;28;20491;-80
2021/12/24 07:54:22;;;;;;;9.32;8.75;;;8.90;84.10;;;;;;5017990;28;20018;-80
2021/12/24 07:56:49;;;;;;;9.50;8.88;;;8.90;84.00;;;;;;5013319;28;20038;-81
2021/12/24 07:59:15;;;;;;;8.52;8.00;;;8.90;84.00;;;;;;4997908;28;20452;-81
2021/12/24 08:01:44;;;;;;;7.95;7.55;;;8.90;84.10;;;;;;5010597;28;20033;-81
2021/12/24 08:04:11;;;;;;;10.02;9.10;;;8.80;84.10;;;;;;5011144;28;20032;-81
2021/12/24 08:06:37;;;;;;;7.07;6.78;;;8.80;84.10;;;;;;4996475;28;20395;-84
2021/12/24 08:09:06;;;;;;;7.45;7.03;;;8.80;85.10;;;;;;5022085;28;20034;-84
2021/12/24 08:11:36;;;;;;;7.05;6.70;;;8.90;84.30;;;;;;5011803;28;20037;-85
2021/12/24 08:14:03;;;;;;;7.25;6.95;;;9.00;84.50;;;;;;5011605;28;20030;-87
2021/12/24 08:16:29;;;;;;;8.07;7.68;;;9.00;84.00;;;;;;4987951;28;20487;-83
2021/12/24 08:18:56;;;;;;;8.90;8.40;;;9.00;83.90;;;;;;5018866;28;20041;-84
2021/12/24 08:21:22;;;;;;;7.88;7.47;;;9.10;84.00;;;;;;5009803;28;20025;-84
2021/12/24 08:23:48;;;;;;;8.48;7.95;;;9.10;83.90;;;;;;5011671;28;20030;-84
2021/12/24 08:26:15;;;;;;;7.80;7.40;;;9.10;83.80;;;;;;4994531;28;20034;-85
2021/12/24 08:28:41;;;;;;;7.82;7.43;;;9.10;83.90;;;;;;5010801;28;20391;-85
2021/12/24 08:31:07;;;;;;;8.55;7.75;;;9.20;83.90;;;;;;5009580;28;20038;-84
2021/12/24 08:33:34;;;;;;;7.70;7.30;;;9.20;83.90;;;;;;5010966;28;20507;-82
2021/12/24 08:36:02;;;;;;;7.93;7.32;;;9.30;83.90;;;;;;5010898;28;20053;-82
2021/12/24 08:38:28;;;;;;;8.43;7.70;;;9.40;83.70;;;;;;5014635;28;20056;-84
2021/12/24 08:40:54;;;;;;;7.68;7.25;;;9.50;83.60;;;;;;5009553;28;20034;-82
2021/12/24 08:43:21;;;;;;;7.82;7.43;;;9.50;83.40;;;;;;5008198;28;20045;-85
2021/12/24 08:45:47;;;;;;;8.20;7.78;;;9.60;83.50;;;;;;4989688;28;20045;-82
2021/12/24 08:48:13;;;;;;;8.98;8.48;;;9.70;83.60;;;;;;5007951;28;20033;-82
2021/12/24 08:50:39;;;;;;;9.93;9.20;;;9.80;83.50;;;;;;5011794;28;20033;-86
2021/12/24 08:53:06;;;;;;;9.38;8.77;;;9.90;83.30;;;;;;5008369;28;20519;-89
2021/12/24 08:55:34;;;;;;;9.63;8.82;;;9.90;83.20;;;;;;5009218;28;20034;-87
2021/12/24 08:58:02;;;;;;;8.13;7.70;;;10.00;83.20;;;;;;5008237;28;20491;-83
2021/12/24 09:00:28;;;;;;;9.13;8.63;;;10.10;83.20;;;;;;5011099;28;20048;-89
2021/12/24 09:02:54;;;;;;;9.07;8.60;;;10.10;83.20;;;;;;5013372;28;20375;-82
2021/12/24 09:05:20;;;;;;;9.13;8.65;;;10.20;83.20;;;;;;5011567;28;20537;-82
2021/12/24 09:07:46;;;;;;;8.40;7.90;;;10.20;83.10;;;;;;5005002;28;20026;-84
2021/12/24 09:10:12;;;;;;;8.32;7.93;;;10.30;83.10;;;;;;5005375;28;20395;-85
2021/12/24 09:12:42;;;;;;;7.55;7.15;;;10.30;83.10;;;;;;5006456;28;20034;-85
2021/12/24 09:15:09;;;;;;;8.13;7.72;;;10.40;83.20;;;;;;5009507;28;20060;-88
2021/12/24 09:17:35;;;;;;;8.45;8.00;;;10.50;83.10;;;;;;4993102;28;20407;-84
2021/12/24 09:20:01;;;;;;;9.27;8.68;;;10.70;83.10;;;;;;5011661;28;20538;-83
2021/12/24 09:22:34;;;;;;;8.38;7.97;;;10.80;82.90;;;;;;5010566;28;20029;-84
2021/12/24 09:25:00;;;;;;;9.55;8.77;;;10.90;82.70;;;;;;4995400;28;20042;-83
2021/12/24 09:27:26;;;;;;;9.20;8.48;;;10.90;82.70;;;;;;5011107;28;20597;-84
2021/12/24 09:29:53;;;;;;;8.27;7.88;;;11.00;82.60;;;;;;5010710;28;20030;-83
2021/12/24 09:32:19;;;;;;;8.10;7.60;;;11.00;82.60;;;;;;4997654;28;20049;-84
2021/12/24 09:34:45;;;;;;;8.00;7.60;;;11.10;82.60;;;;;;5008823;28;20034;-83
2021/12/24 09:37:11;;;;;;;8.48;8.02;;;11.20;82.60;;;;;;5008643;28;20060;-83
2021/12/24 09:39:37;;;;;;;8.32;7.93;;;11.20;82.60;;;;;;5010893;28;20037;-85
2021/12/24 09:42:04;;;;;;;8.85;8.35;;;11.30;82.60;;;;;;5009832;28;20042;-84
2021/12/24 09:44:30;;;;;;;9.40;8.80;;;11.40;82.70;;;;;;5012442;28;20391;-83
2021/12/24 09:46:56;;;;;;;8.50;8.07;;;11.50;82.60;;;;;;5009170;28;20045;-84
2021/12/24 09:49:23;;;;;;;8.95;8.50;;;11.50;82.50;;;;;;5009513;28;20034;-84
2021/12/24 09:51:53;;;;;;;9.38;8.77;;;11.60;82.50;;;;;;5007247;28;20048;-83
2021/12/24 09:54:23;;;;;;;9.02;8.38;;;11.70;82.40;;;;;;5010002;28;20489;-84
2021/12/24 09:56:51;;;;;;;8.52;8.13;;;11.70;82.30;;;;;;5000690;28;20034;-84
2021/12/24 09:59:17;;;;;;;8.30;7.90;;;11.80;82.30;;;;;;4992834;28;20045;-84
2021/12/24 10:01:53;;;;;;;8.65;8.15;;;11.90;82.30;;;;;;5007289;28;20034;-85
2021/12/24 10:04:20;;;;;;;8.50;8.10;;;11.90;82.30;;;;;;5009474;28;20048;-85
2021/12/24 10:07:00;;;;;;;8.88;8.38;;;11.90;82.30;;;;;;4990636;28;20041;-86
2021/12/24 10:09:32;;;;;;;8.43;8.02;;;12.00;82.40;;;;;;5008688;28;20416;-85
2021/12/24 10:12:00;;;;;;;8.82;8.30;;;12.10;82.40;;;;;;5010224;28;20034;-88
2021/12/24 10:14:53;;;;;;;8.98;8.43;;;12.20;82.70;;;;;;4993588;28;20033;-86
2021/12/24 10:17:25;;;;;;;8.98;8.57;;;12.20;82.20;;;;;;5003370;28;20045;-82
2021/12/24 10:19:53;;;;;;;9.80;9.30;;;12.20;82.00;;;;;;5009650;28;20055;-83
2021/12/24 10:22:19;;;;;;;9.52;9.07;;;12.20;81.80;;;;;;5009228;28;20463;-83
2021/12/24 10:25:05;;;;;;;8.82;8.32;;;12.10;81.80;;;;;;5008898;28;20022;-82
2021/12/24 10:27:32;;;;;;;11.23;10.52;;;12.10;81.90;;;;;;5018470;28;20041;-83
2021/12/24 10:29:59;;;;;;;10.90;10.40;;;12.20;81.90;;;;;;5008920;28;20463;-83
2021/12/24 10:32:26;;;;;;;10.48;9.88;;;12.10;81.60;;;;;;5012915;28;20042;-82
2021/12/24 10:34:52;;;;;;;9.93;9.38;;;12.00;81.60;;;;;;5012786;28;20037;-82
2021/12/24 10:37:22;;;;;;;9.95;9.45;;;11.90;81.70;;;;;;5014010;28;20034;-82
2021/12/24 10:39:58;;;;;;;22.40;9.90;;;11.80;82.00;;;;;;5013786;28;20343;-82
2021/12/24 10:42:32;;;;;;;9.63;9.10;;;11.80;82.20;;;;;;5012485;28;20029;-82
2021/12/24 10:44:59;;;;;;;9.90;9.40;;;11.80;82.30;;;;;;5013035;28;20026;-85
2021/12/24 10:47:31;;;;;;;9.55;9.00;;;11.70;82.30;;;;;;4997610;28;20394;-81
2021/12/24 10:55:12;;;;;;;9.73;9.05;;;12.00;82.10;;;;;;5015173;28;20037;-83
2021/12/24 10:57:40;;;;;;;9.02;8.52;;;12.00;82.60;;;;;;5014313;28;20038;-83
2021/12/24 11:00:12;;;;;;;10.45;9.38;;;12.00;81.70;;;;;;5012368;28;20026;-82
2021/12/24 11:02:38;;;;;;;12.77;11.32;;;12.00;81.80;;;;;;5010670;28;20030;-83
2021/12/24 11:05:05;;;;;;;13.15;11.85;;;11.90;81.80;;;;;;5014648;28;20037;-81
2021/12/24 11:07:37;;;;;;;9.80;9.30;;;11.90;81.90;;;;;;5012846;28;20044;-79
2021/12/24 11:10:30;;;;;;;11.13;10.52;;;11.80;82.10;;;;;;5012118;28;20534;-84
2021/12/24 11:12:58;;;;;;;11.18;10.57;;;11.80;82.30;;;;;;5002764;28;20042;-82
2021/12/24 11:15:30;;;;;;;10.50;9.77;;;11.70;82.40;;;;;;5010123;28;20041;-83
2021/12/24 11:18:02;;;;;;;10.60;10.10;;;11.70;82.40;;;;;;5013890;28;20041;-83
2021/12/24 11:20:29;;;;;;;11.93;11.35;;;11.70;82.50;;;;;;5014288;28;20026;-81
2021/12/24 11:22:59;;;;;;;10.05;9.55;;;11.60;82.50;;;;;;5011121;28;20030;-83
2021/12/24 11:25:27;;;;;;;10.63;9.82;;;11.60;82.60;;;;;;5010577;28;20026;-82
2021/12/24 11:27:53;;;;;;;9.80;9.30;;;11.60;82.60;;;;;;4996623;28;20038;-82
2021/12/24 11:30:21;;;;;;;9.55;8.95;;;11.60;82.60;;;;;;5025365;28;20033;-82
2021/12/24 11:32:47;;;;;;;9.07;8.68;;;11.60;82.70;;;;;;5011730;28;20041;-84
2021/12/24 11:35:14;;;;;;;10.43;9.82;;;11.60;82.50;;;;;;4974576;28;20399;-85
2021/12/24 11:37:44;;;;;;;10.45;9.48;;;11.60;82.50;;;;;;5010138;28;20022;-85
2021/12/24 11:40:13;;;;;;;10.50;10.00;;;11.60;82.50;;;;;;5015172;28;20033;-83
2021/12/24 11:42:44;;;;;;;9.73;9.23;;;11.50;82.50;;;;;;5009326;28;20034;-84
2021/12/24 11:45:10;;;;;;;10.38;9.88;;;11.50;82.50;;;;;;5012655;28;20038;-82
2021/12/24 11:47:36;;;;;;;11.07;10.50;;;11.50;82.60;;;;;;5012429;28;20037;-81
2021/12/24 11:50:03;;;;;;;10.52;10.00;;;11.50;82.60;;;;;;5009606;28;20038;-84
2021/12/24 11:52:29;;;;;;;11.32;10.82;;;11.40;82.60;;;;;;5010400;28;20038;-83
2021/12/24 11:54:59;;;;;;;11.52;10.95;;;11.40;82.70;;;;;;5011270;28;20053;-84
2021/12/24 11:57:25;;;;;;;11.15;10.55;;;11.40;82.80;;;;;;5010597;28;20038;-83
2021/12/24 11:59:51;;;;;;;11.30;10.55;;;11.40;82.80;;;;;;5011381;28;20037;-86
2021/12/24 12:02:45;;;;;;;9.52;9.02;;;11.40;82.80;;;;;;5013984;28;20380;-84
2021/12/24 12:05:12;;;;;;;9.90;9.40;;;11.40;82.90;;;;;;5009658;28;20033;-83
2021/12/24 12:07:38;;;;;;;9.38;8.88;;;11.40;82.80;;;;;;5010010;28;20029;-92
2021/12/24 12:10:04;;;;;;;11.45;10.85;;;11.40;82.80;;;;;;5010219;28;20049;-87
2021/12/24 12:12:34;;;;;;;9.50;8.48;;;11.40;82.80;;;;;;5009822;28;20467;-83
2021/12/24 12:15:26;;;;;;;10.90;10.27;;;11.50;82.80;;;;;;5010870;28;20049;-84
2021/12/24 12:17:54;;;;;;;9.38;8.95;;;11.60;82.80;;;;;;5010568;28;20042;-81
2021/12/24 12:20:50;;;;;;;11.20;10.60;;;11.70;82.60;;;;;;5011573;28;20037;-82
2021/12/24 12:23:46;;;;;;;9.65;9.15;;;11.80;82.40;;;;;;5011671;28;20037;-83
2021/12/24 12:26:41;;;;;;;10.10;9.45;;;11.80;82.40;;;;;;5010373;28;20033;-84
2021/12/24 12:29:32;;;;;;;10.13;9.02;;;11.80;82.30;;;;;;4938231;28;20514;-83
2021/12/24 12:32:13;;;;;;;10.27;9.77;;;11.80;82.30;;;;;;4934241;29;20076;-87
2021/12/24 12:34:39;;;;;;;12.05;11.18;;;11.90;82.30;;;;;;4933258;29;20039;-83
2021/12/24 12:37:30;;;;;;;9.35;8.82;;;11.80;82.30;;;;;;4931788;29;20040;-83
2021/12/24 12:39:58;;;;;;;;;;;11.90;82.30;;;;;;4916696;29;20055;-81
2021/12/24 12:42:55;;;;;;;9.45;8.95;;;11.80;82.30;;;;;;4931094;29;19918;-84
2021/12/24 12:45:36;;;;;;;10.00;9.43;;;11.80;82.30;;;;;;4940294;28;20752;-81
2021/12/24 12:48:04;;;;;;;10.18;9.68;;;11.80;82.30;;;;;;4950977;29;20055;-80
2021/12/24 12:50:30;;;;;;;9.05;8.60;;;11.80;82.30;;;;;;4950479;29;20027;-80
2021/12/24 12:53:22;;;;;;;8.70;8.20;;;11.80;82.40;;;;;;4939600;28;20051;-80
2021/12/24 12:55:49;;;;;;;8.57;8.18;;;11.90;82.50;;;;;;4950565;29;20405;-80
2021/12/24 12:58:22;;;;;;;8.80;8.30;;;11.90;82.40;;;;;;4919557;29;20488;-80
2021/12/24 13:01:11;;;;;;;11.45;10.38;;;12.00;82.30;;;;;;4949503;28;20071;-82
2021/12/24 13:03:55;;;;;;;9.55;9.05;;;12.00;82.30;;;;;;4936194;29;20417;-82
2021/12/24 13:06:22;;;;;;;9.63;8.90;;;12.10;82.30;;;;;;5003590;28;20045;-82
2021/12/24 13:08:49;;;;;;;7.63;7.22;;;12.10;82.20;;;;;;5010765;28;20037;-81
2021/12/24 13:11:17;;;;;;;9.02;8.52;;;12.20;82.20;;;;;;5007272;28;20042;-81
2021/12/24 13:13:55;;;;;;;9.32;8.73;;;12.30;82.10;;;;;;4993180;28;20048;-81
2021/12/24 13:16:38;;;;;;;9.80;9.25;;;12.30;82.10;;;;;;5009331;28;20034;-81
2021/12/24 13:25:10;;;;;;;10.07;9.48;;;12.40;82.00;;;;;;5004011;28;20026;-81
2021/12/24 13:27:52;;;;;;;11.25;10.65;;;12.40;82.00;;;;;;5008382;28;20056;-81
2021/12/24 13:30:24;;;;;;;;;;;12.40;82.00;;;;;;4995602;28;20387;-81
2021/12/24 13:32:52;;;;;;;10.88;10.27;;;12.30;82.10;;;;;;4992350;28;20370;-82
2021/12/24 13:35:22;;;;;;;10.88;10.38;;;12.20;82.20;;;;;;5009156;28;20042;-81
2021/12/24 13:37:48;;;;;;;11.70;10.68;;;12.20;82.40;;;;;;4992504;28;20058;-81
2021/12/24 13:40:17;;;;;;;10.02;9.40;;;12.10;82.50;;;;;;5006659;28;20030;-82
2021/12/24 13:42:51;;;;;;;10.65;10.05;;;12.10;82.60;;;;;;5011711;28;20483;-80
2021/12/24 13:45:18;;;;;;;10.25;9.75;;;12.10;82.60;;;;;;4994142;28;20033;-81
2021/12/24 13:55:36;;;;;;;10.20;9.60;;;12.10;82.60;;;;;;5006377;28;20033;-81
2021/12/24 13:58:04;;;;;;;9.98;9.48;;;12.20;82.70;;;;;;5018984;28;20049;-81
2021/12/24 14:00:33;;;;;;;9.63;9.23;;;12.10;82.70;;;;;;5007076;28;20471;-81
2021/12/24 14:03:04;;;;;;;10.38;9.88;;;12.20;82.80;;;;;;5008186;28;20021;-81
2021/12/24 14:05:30;;;;;;;;;;;12.20;82.80;;;;;;5011418;28;20050;-81
2021/12/24 14:08:16;;;;;;;10.43;9.93;;;12.20;82.90;;;;;;4996694;28;19920;-81
2021/12/24 14:10:44;;;;;;;13.10;12.48;;;12.20;82.80;;;;;;5009019;28;20022;-82
2021/12/24 14:13:21;;;;;;;10.38;9.88;;;12.20;82.70;;;;;;5008818;28;20041;-80
2021/12/24 14:16:01;;;;;;;10.20;9.70;;;12.20;82.70;;;;;;5008828;28;20502;-81
2021/12/24 14:18:44;;;;;;;9.13;8.73;;;12.20;82.70;;;;;;5017053;28;20042;-79
2021/12/24 14:21:45;;;;;;;12.60;11.55;;;12.30;82.80;;;;;;5012002;28;20419;-80
2021/12/24 14:24:12;;;;;;;;;;;12.30;82.80;;;;;;5016995;28;20071;-80
2021/12/24 14:26:47;;;;;;;10.85;10.25;;;12.30;82.70;;;;;;5005829;28;19917;-79
2021/12/24 14:29:23;;;;;;;11.43;10.82;;;12.30;82.70;;;;;;4992131;28;20034;-79
2021/12/24 14:32:00;;;;;;;9.27;8.88;;;12.30;82.60;;;;;;5008677;28;20042;-80
2021/12/24 14:34:43;;;;;;;9.70;9.20;;;12.40;82.70;;;;;;5008766;28;20037;-80
2021/12/24 14:37:15;;;;;;;9.50;8.95;;;12.30;82.60;;;;;;4991092;28;20045;-80
2021/12/24 14:39:43;;;;;;;9.30;8.80;;;12.40;82.60;;;;;;5006973;28;20033;-80
2021/12/24 14:42:27;;;;;;;9.98;9.38;;;12.40;82.60;;;;;;5007545;28;20030;-80
2021/12/24 14:45:14;;;;;;;10.02;8.60;;;12.40;82.50;;;;;;5007875;28;20033;-80
2021/12/24 14:47:41;;;;;;;9.52;8.93;;;12.50;82.50;;;;;;4998030;28;20034;-80
2021/12/24 14:50:11;;;;;;;9.95;9.35;;;12.50;82.40;;;;;;5009504;28;20041;-80
2021/12/24 14:52:37;;;;;;;9.82;9.10;;;12.50;82.40;;;;;;5007970;28;20372;-80
2021/12/24 14:55:09;;;;;;;9.38;8.77;;;12.60;82.40;;;;;;5009749;28;20052;-80
2021/12/24 14:57:47;;;;;;;;;;;12.60;82.40;;;;;;5008724;28;20026;-80
2021/12/24 15:00:15;;;;;;;9.77;9.18;;;12.60;82.40;;;;;;5000408;28;20412;-80
2021/12/24 15:02:42;;;;;;;8.93;8.48;;;12.60;82.30;;;;;;5010568;28;20483;-80